首页
METAR-TAF:

METAR-TAF

机场 :

科羅拉多大峽谷, 亞利桑那州, 美国

纬度: 35-56-46N, 经度: 112-09-17W, 海拔: 2014米

当前天气观测

该预报发布于46分钟前的03:54 UTC
风速9节,风向东转东北
温度 4°C
湿度 30%
气压 1012 hPa
能見度: 16.1公里
天空无云

METAR: KGCN 190354Z AUTO 06009KT 10SM CLR 04/M12 A2989 RMK AO2 SLP102 T00391117 TSNO

时间: 21:40 (04:40 UTC)

预报

该预报发布于51分钟前的03:49 UTC
预报有效从19日的 04点(UTC)到 19日的 24点(UTC)
风速8节,风向东转东北
能見度: 10公里
散云层高于5000英尺
阴天层高于11000英尺
短暂存在
从 19日的 07点(UTC)到 19日的 11点(UTC)
多云层高于2500英尺
从 19日的 1100点(UTC)
风速16节,风向东转东北,有时为26节阵风
能見度: 10公里
散云层高于1500英尺
阴天层高于9000英尺

TAF: KGCN 190349Z 1904/1924 07008KT P6SM SCT050 OVC110 TEMPO 1907/1911 BKN025 FM191100 07016G26KT P6SM SCT015 OVC090

超过4000个机场的气象观测和天气预报(METAR&TAF报告)。

可查询的气象台以黄色和红色小点在地图上表示。

将鼠标移到小点上方,可查看气象台名称。

然后点击查看天气观测和预报。

如需切换地图:点击带黑十字的绿色按钮放大地图;点击带横线的绿色按钮缩小地图;或者点击绿色箭头查看邻近地区的地图。


METAR-TAF: